sensor_id;sensor_type;location;lat;lon;timestamp;temperature;humidity
24800;DHT22;12897;50.812;4.430;2023-02-15T00:00:38;4.50;99.90
24800;DHT22;12897;50.812;4.430;2023-02-15T00:03:12;4.50;99.90
24800;DHT22;12897;50.812;4.430;2023-02-15T00:05:47;4.40;99.90
24800;DHT22;12897;50.812;4.430;2023-02-15T00:08:29;4.30;99.90
24800;DHT22;12897;50.812;4.430;2023-02-15T00:11:12;4.30;99.90
24800;DHT22;12897;50.812;4.430;2023-02-15T00:13:43;4.20;99.90
24800;DHT22;12897;50.812;4.430;2023-02-15T00:16:18;4.10;99.90
24800;DHT22;12897;50.812;4.430;2023-02-15T00:19:06;4.00;99.90
24800;DHT22;12897;50.812;4.430;2023-02-15T00:21:36;4.10;99.90
24800;DHT22;12897;50.812;4.430;2023-02-15T00:24:10;4.00;99.90
24800;DHT22;12897;50.812;4.430;2023-02-15T00:26:47;4.00;99.90
24800;DHT22;12897;50.812;4.430;2023-02-15T00:29:25;4.00;99.90
24800;DHT22;12897;50.812;4.430;2023-02-15T00:31:48;4.10;99.90
24800;DHT22;12897;50.812;4.430;2023-02-15T00:34:24;4.10;99.90
24800;DHT22;12897;50.812;4.430;2023-02-15T00:36:53;4.20;99.90
24800;DHT22;12897;50.812;4.430;2023-02-15T00:39:22;4.20;99.90
24800;DHT22;12897;50.812;4.430;2023-02-15T00:41:47;4.10;99.90
24800;DHT22;12897;50.812;4.430;2023-02-15T00:44:26;4.20;99.90
24800;DHT22;12897;50.812;4.430;2023-02-15T00:46:47;4.10;99.90
24800;DHT22;12897;50.812;4.430;2023-02-15T00:49:16;4.10;99.90
24800;DHT22;12897;50.812;4.430;2023-02-15T00:51:47;4.00;99.90
24800;DHT22;12897;50.812;4.430;2023-02-15T00:54:22;4.00;99.90
24800;DHT22;12897;50.812;4.430;2023-02-15T00:56:55;3.90;99.90
24800;DHT22;12897;50.812;4.430;2023-02-15T00:59:22;3.80;99.90
24800;DHT22;12897;50.812;4.430;2023-02-15T01:01:51;3.70;99.90
24800;DHT22;12897;50.812;4.430;2023-02-15T01:04:20;3.80;99.90
24800;DHT22;12897;50.812;4.430;2023-02-15T01:06:50;3.80;99.90
24800;DHT22;12897;50.812;4.430;2023-02-15T01:09:21;3.70;99.90
24800;DHT22;12897;50.812;4.430;2023-02-15T01:12:02;3.60;99.90
24800;DHT22;12897;50.812;4.430;2023-02-15T01:14:22;3.70;99.90
24800;DHT22;12897;50.812;4.430;2023-02-15T01:16:50;3.70;99.90
24800;DHT22;12897;50.812;4.430;2023-02-15T01:19:25;3.70;99.90
24800;DHT22;12897;50.812;4.430;2023-02-15T01:21:52;3.70;99.90
24800;DHT22;12897;50.812;4.430;2023-02-15T01:24:27;3.70;99.90
24800;DHT22;12897;50.812;4.430;2023-02-15T01:26:53;3.60;99.90
24800;DHT22;12897;50.812;4.430;2023-02-15T01:29:28;3.60;99.90
24800;DHT22;12897;50.812;4.430;2023-02-15T01:32:04;3.60;99.90
24800;DHT22;12897;50.812;4.430;2023-02-15T01:34:35;3.60;99.90
24800;DHT22;12897;50.812;4.430;2023-02-15T01:37:11;3.60;99.90
24800;DHT22;12897;50.812;4.430;2023-02-15T01:39:47;3.60;99.90
24800;DHT22;12897;50.812;4.430;2023-02-15T01:42:28;3.50;99.90
24800;DHT22;12897;50.812;4.430;2023-02-15T01:45:33;3.60;99.90
24800;DHT22;12897;50.812;4.430;2023-02-15T01:50:46;3.50;99.90
24800;DHT22;12897;50.812;4.430;2023-02-15T01:53:34;3.50;99.90
24800;DHT22;12897;50.812;4.430;2023-02-15T01:56:05;3.60;99.90
24800;DHT22;12897;50.812;4.430;2023-02-15T01:58:38;3.50;99.90
24800;DHT22;12897;50.812;4.430;2023-02-15T02:01:05;3.40;99.90
24800;DHT22;12897;50.812;4.430;2023-02-15T02:06:38;3.30;99.90
24800;DHT22;12897;50.812;4.430;2023-02-15T02:09:09;3.30;99.90
24800;DHT22;12897;50.812;4.430;2023-02-15T02:11:41;3.20;99.90
24800;DHT22;12897;50.812;4.430;2023-02-15T02:14:13;3.20;99.90
24800;DHT22;12897;50.812;4.430;2023-02-15T02:16:47;3.30;99.90
24800;DHT22;12897;50.812;4.430;2023-02-15T02:27:41;3.30;99.90
24800;DHT22;12897;50.812;4.430;2023-02-15T02:33:07;3.30;99.90
24800;DHT22;12897;50.812;4.430;2023-02-15T02:38:24;3.20;99.90
24800;DHT22;12897;50.812;4.430;2023-02-15T02:46:20;3.30;99.90
24800;DHT22;12897;50.812;4.430;2023-02-15T02:48:49;3.20;99.90
24800;DHT22;12897;50.812;4.430;2023-02-15T02:51:19;3.20;99.90
24800;DHT22;12897;50.812;4.430;2023-02-15T02:54:08;3.20;99.90
24800;DHT22;12897;50.812;4.430;2023-02-15T02:56:39;3.00;99.90
24800;DHT22;12897;50.812;4.430;2023-02-15T02:59:23;3.00;99.90
24800;DHT22;12897;50.812;4.430;2023-02-15T03:01:52;3.10;99.90
24800;DHT22;12897;50.812;4.430;2023-02-15T03:04:27;3.10;99.90
24800;DHT22;12897;50.812;4.430;2023-02-15T03:07:00;3.10;99.90
24800;DHT22;12897;50.812;4.430;2023-02-15T03:09:34;3.10;99.90
24800;DHT22;12897;50.812;4.430;2023-02-15T03:12:09;3.10;99.90
24800;DHT22;12897;50.812;4.430;2023-02-15T03:14:39;3.10;99.90
24800;DHT22;12897;50.812;4.430;2023-02-15T03:17:10;3.10;99.90
24800;DHT22;12897;50.812;4.430;2023-02-15T03:19:42;3.00;99.90
24800;DHT22;12897;50.812;4.430;2023-02-15T03:22:30;3.00;99.90
24800;DHT22;12897;50.812;4.430;2023-02-15T03:25:42;3.00;99.90
24800;DHT22;12897;50.812;4.430;2023-02-15T03:27:36;3.00;99.90
24800;DHT22;12897;50.812;4.430;2023-02-15T03:30:13;3.00;99.90
24800;DHT22;12897;50.812;4.430;2023-02-15T03:32:34;3.00;99.90
24800;DHT22;12897;50.812;4.430;2023-02-15T03:35:08;2.90;99.90
24800;DHT22;12897;50.812;4.430;2023-02-15T03:38:06;2.90;99.90
24800;DHT22;12897;50.812;4.430;2023-02-15T03:40:44;2.80;99.90
24800;DHT22;12897;50.812;4.430;2023-02-15T03:43:57;2.70;99.90
24800;DHT22;12897;50.812;4.430;2023-02-15T03:49:26;2.70;99.90
24800;DHT22;12897;50.812;4.430;2023-02-15T03:51:54;2.80;99.90
24800;DHT22;12897;50.812;4.430;2023-02-15T03:54:30;2.80;99.90
24800;DHT22;12897;50.812;4.430;2023-02-15T03:57:24;2.90;99.90
24800;DHT22;12897;50.812;4.430;2023-02-15T04:00:18;2.90;99.90
24800;DHT22;12897;50.812;4.430;2023-02-15T04:06:00;2.80;99.90
24800;DHT22;12897;50.812;4.430;2023-02-15T04:08:31;2.70;99.90
24800;DHT22;12897;50.812;4.430;2023-02-15T04:11:16;2.70;99.90
24800;DHT22;12897;50.812;4.430;2023-02-15T04:13:49;2.60;99.90
24800;DHT22;12897;50.812;4.430;2023-02-15T04:16:16;2.60;99.90
24800;DHT22;12897;50.812;4.430;2023-02-15T04:18:48;2.70;99.90
24800;DHT22;12897;50.812;4.430;2023-02-15T04:21:33;2.80;99.90
24800;DHT22;12897;50.812;4.430;2023-02-15T04:24:21;2.70;99.90
24800;DHT22;12897;50.812;4.430;2023-02-15T04:27:07;2.60;99.90
24800;DHT22;12897;50.812;4.430;2023-02-15T04:29:36;2.60;99.90
24800;DHT22;12897;50.812;4.430;2023-02-15T04:32:05;2.60;99.90
24800;DHT22;12897;50.812;4.430;2023-02-15T04:34:34;2.60;99.90
24800;DHT22;12897;50.812;4.430;2023-02-15T04:37:02;2.60;99.90
24800;DHT22;12897;50.812;4.430;2023-02-15T04:39:34;2.60;99.90
24800;DHT22;12897;50.812;4.430;2023-02-15T04:42:01;2.60;99.90
24800;DHT22;12897;50.812;4.430;2023-02-15T04:44:32;2.70;99.90
24800;DHT22;12897;50.812;4.430;2023-02-15T04:52:47;2.80;99.90
24800;DHT22;12897;50.812;4.430;2023-02-15T04:55:15;2.80;99.90
24800;DHT22;12897;50.812;4.430;2023-02-15T05:03:53;2.60;99.90
24800;DHT22;12897;50.812;4.430;2023-02-15T05:06:23;2.70;99.90
24800;DHT22;12897;50.812;4.430;2023-02-15T05:08:57;2.80;99.90
24800;DHT22;12897;50.812;4.430;2023-02-15T05:11:23;2.80;99.90
24800;DHT22;12897;50.812;4.430;2023-02-15T05:14:04;2.80;99.90
24800;DHT22;12897;50.812;4.430;2023-02-15T05:16:34;2.70;99.90
24800;DHT22;12897;50.812;4.430;2023-02-15T05:19:04;2.70;99.90
24800;DHT22;12897;50.812;4.430;2023-02-15T05:21:32;2.60;99.90
24800;DHT22;12897;50.812;4.430;2023-02-15T05:24:02;2.60;99.90
24800;DHT22;12897;50.812;4.430;2023-02-15T05:26:31;2.60;99.90
24800;DHT22;12897;50.812;4.430;2023-02-15T05:29:19;2.50;99.90
24800;DHT22;12897;50.812;4.430;2023-02-15T05:31:48;2.50;99.90
24800;DHT22;12897;50.812;4.430;2023-02-15T05:34:19;2.60;99.90
24800;DHT22;12897;50.812;4.430;2023-02-15T05:36:48;2.60;99.90
24800;DHT22;12897;50.812;4.430;2023-02-15T05:39:15;2.50;99.90
24800;DHT22;12897;50.812;4.430;2023-02-15T05:41:44;2.60;99.90
24800;DHT22;12897;50.812;4.430;2023-02-15T05:44:12;2.70;99.90
24800;DHT22;12897;50.812;4.430;2023-02-15T05:46:45;2.70;99.90
24800;DHT22;12897;50.812;4.430;2023-02-15T05:49:13;2.60;99.90
24800;DHT22;12897;50.812;4.430;2023-02-15T05:51:40;2.60;99.90
24800;DHT22;12897;50.812;4.430;2023-02-15T05:54:09;2.50;99.90
24800;DHT22;12897;50.812;4.430;2023-02-15T05:56:37;2.50;99.90
24800;DHT22;12897;50.812;4.430;2023-02-15T05:59:05;2.50;99.90
24800;DHT22;12897;50.812;4.430;2023-02-15T06:01:35;2.60;99.90
24800;DHT22;12897;50.812;4.430;2023-02-15T06:04:02;2.60;99.90
24800;DHT22;12897;50.812;4.430;2023-02-15T06:06:31;2.50;99.90
24800;DHT22;12897;50.812;4.430;2023-02-15T06:08:59;2.50;99.90
24800;DHT22;12897;50.812;4.430;2023-02-15T06:11:27;2.60;99.90
24800;DHT22;12897;50.812;4.430;2023-02-15T06:13:55;2.60;99.90
24800;DHT22;12897;50.812;4.430;2023-02-15T06:16:25;2.70;99.90
24800;DHT22;12897;50.812;4.430;2023-02-15T06:19:01;2.60;99.90
24800;DHT22;12897;50.812;4.430;2023-02-15T06:21:29;2.70;99.90
24800;DHT22;12897;50.812;4.430;2023-02-15T06:23:58;2.60;99.90
24800;DHT22;12897;50.812;4.430;2023-02-15T06:26:28;2.60;99.90
24800;DHT22;12897;50.812;4.430;2023-02-15T06:28:55;2.70;99.90
24800;DHT22;12897;50.812;4.430;2023-02-15T06:31:23;2.70;99.90
24800;DHT22;12897;50.812;4.430;2023-02-15T06:33:52;2.60;99.90
24800;DHT22;12897;50.812;4.430;2023-02-15T06:36:22;2.60;99.90
24800;DHT22;12897;50.812;4.430;2023-02-15T06:38:52;2.60;99.90
24800;DHT22;12897;50.812;4.430;2023-02-15T06:41:20;2.50;99.90
24800;DHT22;12897;50.812;4.430;2023-02-15T06:43:50;2.60;99.90
24800;DHT22;12897;50.812;4.430;2023-02-15T06:46:18;2.50;99.90
24800;DHT22;12897;50.812;4.430;2023-02-15T06:48:46;2.50;99.90
24800;DHT22;12897;50.812;4.430;2023-02-15T06:51:18;2.50;99.90
24800;DHT22;12897;50.812;4.430;2023-02-15T06:53:51;2.50;99.90
24800;DHT22;12897;50.812;4.430;2023-02-15T06:56:15;2.50;99.90
24800;DHT22;12897;50.812;4.430;2023-02-15T06:58:44;2.50;99.90
24800;DHT22;12897;50.812;4.430;2023-02-15T07:01:14;2.60;99.90
24800;DHT22;12897;50.812;4.430;2023-02-15T07:03:43;2.70;99.90
24800;DHT22;12897;50.812;4.430;2023-02-15T07:06:13;2.80;99.90
24800;DHT22;12897;50.812;4.430;2023-02-15T07:08:41;2.80;99.90
24800;DHT22;12897;50.812;4.430;2023-02-15T07:11:10;2.80;99.90
24800;DHT22;12897;50.812;4.430;2023-02-15T07:13:55;2.90;99.90
24800;DHT22;12897;50.812;4.430;2023-02-15T07:16:25;2.80;99.90
24800;DHT22;12897;50.812;4.430;2023-02-15T07:18:52;2.90;99.90
24800;DHT22;12897;50.812;4.430;2023-02-15T07:21:25;3.10;99.90
24800;DHT22;12897;50.812;4.430;2023-02-15T07:23:58;3.00;99.90
24800;DHT22;12897;50.812;4.430;2023-02-15T07:26:26;3.10;99.90
24800;DHT22;12897;50.812;4.430;2023-02-15T07:28:58;3.20;99.90
24800;DHT22;12897;50.812;4.430;2023-02-15T07:31:24;3.20;99.90
24800;DHT22;12897;50.812;4.430;2023-02-15T07:33:51;3.20;99.90
24800;DHT22;12897;50.812;4.430;2023-02-15T07:36:19;3.30;99.90
24800;DHT22;12897;50.812;4.430;2023-02-15T07:38:48;3.30;99.90
24800;DHT22;12897;50.812;4.430;2023-02-15T07:41:16;3.40;99.90
24800;DHT22;12897;50.812;4.430;2023-02-15T07:43:45;3.40;99.90
24800;DHT22;12897;50.812;4.430;2023-02-15T07:46:17;3.30;99.90
24800;DHT22;12897;50.812;4.430;2023-02-15T07:48:44;3.30;99.90
24800;DHT22;12897;50.812;4.430;2023-02-15T07:51:14;3.40;99.90
24800;DHT22;12897;50.812;4.430;2023-02-15T07:53:44;3.40;99.90
24800;DHT22;12897;50.812;4.430;2023-02-15T07:56:13;3.50;99.90
24800;DHT22;12897;50.812;4.430;2023-02-15T07:58:43;3.60;99.90
24800;DHT22;12897;50.812;4.430;2023-02-15T08:01:22;3.60;99.90
24800;DHT22;12897;50.812;4.430;2023-02-15T08:03:59;3.60;99.90
24800;DHT22;12897;50.812;4.430;2023-02-15T08:06:31;3.70;99.90
24800;DHT22;12897;50.812;4.430;2023-02-15T08:08:57;3.80;99.90
24800;DHT22;12897;50.812;4.430;2023-02-15T08:11:30;3.80;99.90
24800;DHT22;12897;50.812;4.430;2023-02-15T08:14:11;3.80;99.90
24800;DHT22;12897;50.812;4.430;2023-02-15T08:16:50;3.90;99.90
24800;DHT22;12897;50.812;4.430;2023-02-15T08:19:12;3.90;99.90
24800;DHT22;12897;50.812;4.430;2023-02-15T08:21:42;3.90;99.90
24800;DHT22;12897;50.812;4.430;2023-02-15T08:24:11;4.10;99.90
24800;DHT22;12897;50.812;4.430;2023-02-15T08:26:39;4.20;99.90
24800;DHT22;12897;50.812;4.430;2023-02-15T08:29:08;4.40;99.90
24800;DHT22;12897;50.812;4.430;2023-02-15T08:31:36;4.50;99.90
24800;DHT22;12897;50.812;4.430;2023-02-15T08:34:04;4.60;99.90
24800;DHT22;12897;50.812;4.430;2023-02-15T08:36:32;4.70;99.90
24800;DHT22;12897;50.812;4.430;2023-02-15T08:39:02;4.80;99.90
24800;DHT22;12897;50.812;4.430;2023-02-15T08:41:37;5.00;99.90
24800;DHT22;12897;50.812;4.430;2023-02-15T08:44:07;5.10;99.90
24800;DHT22;12897;50.812;4.430;2023-02-15T08:46:38;5.20;99.90
24800;DHT22;12897;50.812;4.430;2023-02-15T08:49:06;5.30;99.90
24800;DHT22;12897;50.812;4.430;2023-02-15T08:51:36;5.40;99.90
24800;DHT22;12897;50.812;4.430;2023-02-15T08:54:08;5.60;99.90
24800;DHT22;12897;50.812;4.430;2023-02-15T08:56:38;5.70;99.90
24800;DHT22;12897;50.812;4.430;2023-02-15T08:59:07;5.90;99.90
24800;DHT22;12897;50.812;4.430;2023-02-15T09:01:35;6.00;99.90
24800;DHT22;12897;50.812;4.430;2023-02-15T09:04:05;6.10;99.90
24800;DHT22;12897;50.812;4.430;2023-02-15T09:06:35;6.10;99.90
24800;DHT22;12897;50.812;4.430;2023-02-15T09:09:04;6.30;99.90
24800;DHT22;12897;50.812;4.430;2023-02-15T09:11:34;6.50;99.90
24800;DHT22;12897;50.812;4.430;2023-02-15T09:14:05;6.60;99.90
24800;DHT22;12897;50.812;4.430;2023-02-15T09:16:36;6.70;99.90
24800;DHT22;12897;50.812;4.430;2023-02-15T09:19:04;7.00;99.90
24800;DHT22;12897;50.812;4.430;2023-02-15T09:21:33;7.10;99.90
24800;DHT22;12897;50.812;4.430;2023-02-15T09:24:02;7.30;99.90
24800;DHT22;12897;50.812;4.430;2023-02-15T09:26:34;7.60;99.90
24800;DHT22;12897;50.812;4.430;2023-02-15T09:29:02;7.70;99.90
24800;DHT22;12897;50.812;4.430;2023-02-15T09:31:47;7.90;99.90
24800;DHT22;12897;50.812;4.430;2023-02-15T09:34:18;8.10;99.90
24800;DHT22;12897;50.812;4.430;2023-02-15T09:36:46;8.30;99.90
24800;DHT22;12897;50.812;4.430;2023-02-15T09:39:16;8.50;99.90
24800;DHT22;12897;50.812;4.430;2023-02-15T09:50:17;9.30;99.90
24800;DHT22;12897;50.812;4.430;2023-02-15T09:55:43;9.60;99.90
24800;DHT22;12897;50.812;4.430;2023-02-15T09:58:35;9.70;99.90
24800;DHT22;12897;50.812;4.430;2023-02-15T10:06:31;9.70;99.90
24800;DHT22;12897;50.812;4.430;2023-02-15T10:12:07;9.70;99.90
24800;DHT22;12897;50.812;4.430;2023-02-15T10:14:36;9.80;99.90
24800;DHT22;12897;50.812;4.430;2023-02-15T10:20:14;10.00;99.90
24800;DHT22;12897;50.812;4.430;2023-02-15T10:28:23;10.10;99.90
24800;DHT22;12897;50.812;4.430;2023-02-15T10:30:56;10.30;99.90
24800;DHT22;12897;50.812;4.430;2023-02-15T10:49:51;10.90;99.90
24800;DHT22;12897;50.812;4.430;2023-02-15T10:52:44;11.10;99.90
24800;DHT22;12897;50.812;4.430;2023-02-15T10:57:59;11.00;99.90
24800;DHT22;12897;50.812;4.430;2023-02-15T11:00:35;11.10;99.90
24800;DHT22;12897;50.812;4.430;2023-02-15T11:06:20;11.10;99.90
24800;DHT22;12897;50.812;4.430;2023-02-15T11:09:03;11.30;99.90
24800;DHT22;12897;50.812;4.430;2023-02-15T11:11:33;11.20;99.90
24800;DHT22;12897;50.812;4.430;2023-02-15T11:14:03;11.40;99.90
24800;DHT22;12897;50.812;4.430;2023-02-15T11:16:34;11.50;99.90
24800;DHT22;12897;50.812;4.430;2023-02-15T11:19:14;11.50;99.90
24800;DHT22;12897;50.812;4.430;2023-02-15T11:21:48;11.60;99.90
24800;DHT22;12897;50.812;4.430;2023-02-15T11:24:20;11.80;99.90
24800;DHT22;12897;50.812;4.430;2023-02-15T11:32:21;11.60;99.90
24800;DHT22;12897;50.812;4.430;2023-02-15T11:35:19;11.90;99.90
24800;DHT22;12897;50.812;4.430;2023-02-15T11:37:27;12.10;99.90
24800;DHT22;12897;50.812;4.430;2023-02-15T11:39:53;12.50;99.90
24800;DHT22;12897;50.812;4.430;2023-02-15T11:42:23;12.70;99.90
24800;DHT22;12897;50.812;4.430;2023-02-15T11:47:20;12.80;99.90
24800;DHT22;12897;50.812;4.430;2023-02-15T11:49:48;12.90;99.90
24800;DHT22;12897;50.812;4.430;2023-02-15T11:52:16;13.10;99.90
24800;DHT22;12897;50.812;4.430;2023-02-15T11:54:52;13.00;99.90
24800;DHT22;12897;50.812;4.430;2023-02-15T12:00:04;12.40;99.90
24800;DHT22;12897;50.812;4.430;2023-02-15T12:02:33;12.10;99.90
24800;DHT22;12897;50.812;4.430;2023-02-15T12:05:11;12.00;99.90
24800;DHT22;12897;50.812;4.430;2023-02-15T12:07:37;11.90;99.90
24800;DHT22;12897;50.812;4.430;2023-02-15T12:12:42;12.10;99.90
24800;DHT22;12897;50.812;4.430;2023-02-15T12:15:11;12.10;99.90
24800;DHT22;12897;50.812;4.430;2023-02-15T12:17:52;12.10;99.90
24800;DHT22;12897;50.812;4.430;2023-02-15T12:22:49;12.40;99.90
24800;DHT22;12897;50.812;4.430;2023-02-15T12:25:41;12.60;99.90
24800;DHT22;12897;50.812;4.430;2023-02-15T12:30:46;12.80;99.90
24800;DHT22;12897;50.812;4.430;2023-02-15T12:33:41;13.10;99.90
24800;DHT22;12897;50.812;4.430;2023-02-15T12:36:18;13.00;99.90
24800;DHT22;12897;50.812;4.430;2023-02-15T12:41:37;13.20;99.90
24800;DHT22;12897;50.812;4.430;2023-02-15T12:44:23;13.50;99.90
24800;DHT22;12897;50.812;4.430;2023-02-15T12:49:36;13.80;99.90
24800;DHT22;12897;50.812;4.430;2023-02-15T12:52:22;14.10;99.90
24800;DHT22;12897;50.812;4.430;2023-02-15T12:54:42;14.00;99.90
24800;DHT22;12897;50.812;4.430;2023-02-15T12:57:31;13.90;99.90
24800;DHT22;12897;50.812;4.430;2023-02-15T13:02:50;14.20;99.90
24800;DHT22;12897;50.812;4.430;2023-02-15T13:05:40;14.00;99.90
24800;DHT22;12897;50.812;4.430;2023-02-15T13:08:11;13.60;99.90
24800;DHT22;12897;50.812;4.430;2023-02-15T13:10:51;13.20;99.90
24800;DHT22;12897;50.812;4.430;2023-02-15T13:13:16;13.10;99.90
24800;DHT22;12897;50.812;4.430;2023-02-15T13:15:41;13.50;99.90
24800;DHT22;12897;50.812;4.430;2023-02-15T13:18:12;13.60;99.90
24800;DHT22;12897;50.812;4.430;2023-02-15T13:20:39;13.70;99.90
24800;DHT22;12897;50.812;4.430;2023-02-15T13:23:28;13.40;99.90
24800;DHT22;12897;50.812;4.430;2023-02-15T13:25:45;13.10;99.90
24800;DHT22;12897;50.812;4.430;2023-02-15T13:28:17;13.00;99.90
24800;DHT22;12897;50.812;4.430;2023-02-15T13:30:48;13.30;99.90
24800;DHT22;12897;50.812;4.430;2023-02-15T13:33:34;13.40;99.90
24800;DHT22;12897;50.812;4.430;2023-02-15T13:41:50;13.50;99.90
24800;DHT22;12897;50.812;4.430;2023-02-15T13:47:24;13.10;99.90
24800;DHT22;12897;50.812;4.430;2023-02-15T13:50:08;13.10;99.90
24800;DHT22;12897;50.812;4.430;2023-02-15T13:52:39;13.10;99.90
24800;DHT22;12897;50.812;4.430;2023-02-15T14:00:40;13.30;99.90
24800;DHT22;12897;50.812;4.430;2023-02-15T14:05:57;13.40;99.90
24800;DHT22;12897;50.812;4.430;2023-02-15T14:08:53;13.40;99.90
24800;DHT22;12897;50.812;4.430;2023-02-15T14:11:51;13.30;99.90
24800;DHT22;12897;50.812;4.430;2023-02-15T14:14:05;13.20;99.90
24800;DHT22;12897;50.812;4.430;2023-02-15T14:17:00;13.30;99.90
24800;DHT22;12897;50.812;4.430;2023-02-15T14:19:34;13.50;99.90
24800;DHT22;12897;50.812;4.430;2023-02-15T14:22:05;13.70;99.90
24800;DHT22;12897;50.812;4.430;2023-02-15T14:24:37;13.70;99.90
24800;DHT22;12897;50.812;4.430;2023-02-15T14:27:27;13.40;99.90
24800;DHT22;12897;50.812;4.430;2023-02-15T14:30:02;13.30;99.90
24800;DHT22;12897;50.812;4.430;2023-02-15T14:32:46;13.20;99.90
24800;DHT22;12897;50.812;4.430;2023-02-15T14:35:21;12.90;99.90
24800;DHT22;12897;50.812;4.430;2023-02-15T14:37:56;12.90;99.90
24800;DHT22;12897;50.812;4.430;2023-02-15T14:40:54;12.80;99.90
24800;DHT22;12897;50.812;4.430;2023-02-15T14:49:12;12.80;99.90
24800;DHT22;12897;50.812;4.430;2023-02-15T15:05:06;12.80;99.90
24800;DHT22;12897;50.812;4.430;2023-02-15T15:07:46;12.80;99.90
24800;DHT22;12897;50.812;4.430;2023-02-15T15:12:48;12.90;99.90
24800;DHT22;12897;50.812;4.430;2023-02-15T15:18:04;12.80;99.90
24800;DHT22;12897;50.812;4.430;2023-02-15T15:20:49;12.70;99.90
24800;DHT22;12897;50.812;4.430;2023-02-15T15:31:40;12.70;99.90
24800;DHT22;12897;50.812;4.430;2023-02-15T15:34:21;12.70;99.90
24800;DHT22;12897;50.812;4.430;2023-02-15T15:37:18;12.60;99.90
24800;DHT22;12897;50.812;4.430;2023-02-15T15:40:21;12.60;99.90
24800;DHT22;12897;50.812;4.430;2023-02-15T15:45:55;12.60;99.90
24800;DHT22;12897;50.812;4.430;2023-02-15T15:48:35;12.70;99.90
24800;DHT22;12897;50.812;4.430;2023-02-15T15:51:02;12.60;99.90
24800;DHT22;12897;50.812;4.430;2023-02-15T15:53:32;12.60;99.90
24800;DHT22;12897;50.812;4.430;2023-02-15T15:56:03;12.50;99.90
24800;DHT22;12897;50.812;4.430;2023-02-15T15:58:31;12.60;99.90
24800;DHT22;12897;50.812;4.430;2023-02-15T16:01:10;12.50;99.90
24800;DHT22;12897;50.812;4.430;2023-02-15T16:03:54;12.50;99.90
24800;DHT22;12897;50.812;4.430;2023-02-15T16:06:31;12.50;99.90
24800;DHT22;12897;50.812;4.430;2023-02-15T16:09:11;12.20;99.90
24800;DHT22;12897;50.812;4.430;2023-02-15T16:11:36;12.20;99.90
24800;DHT22;12897;50.812;4.430;2023-02-15T16:14:16;12.10;99.90
24800;DHT22;12897;50.812;4.430;2023-02-15T16:16:41;11.90;99.90
24800;DHT22;12897;50.812;4.430;2023-02-15T16:19:16;11.80;99.90
24800;DHT22;12897;50.812;4.430;2023-02-15T16:21:43;11.80;99.90
24800;DHT22;12897;50.812;4.430;2023-02-15T16:24:22;11.90;99.90
24800;DHT22;12897;50.812;4.430;2023-02-15T16:27:12;11.90;99.90
24800;DHT22;12897;50.812;4.430;2023-02-15T16:29:39;11.80;99.90
24800;DHT22;12897;50.812;4.430;2023-02-15T16:32:21;11.70;99.90
24800;DHT22;12897;50.812;4.430;2023-02-15T16:35:00;11.40;99.90
24800;DHT22;12897;50.812;4.430;2023-02-15T16:37:33;11.40;99.90
24800;DHT22;12897;50.812;4.430;2023-02-15T16:40:01;11.30;99.90
24800;DHT22;12897;50.812;4.430;2023-02-15T16:42:28;11.20;99.90
24800;DHT22;12897;50.812;4.430;2023-02-15T16:45:08;11.10;99.90
24800;DHT22;12897;50.812;4.430;2023-02-15T16:47:41;11.00;99.90
24800;DHT22;12897;50.812;4.430;2023-02-15T16:50:17;10.90;99.90
24800;DHT22;12897;50.812;4.430;2023-02-15T16:52:45;10.80;99.90
24800;DHT22;12897;50.812;4.430;2023-02-15T16:55:27;10.70;99.90
24800;DHT22;12897;50.812;4.430;2023-02-15T16:57:59;10.70;99.90
24800;DHT22;12897;50.812;4.430;2023-02-15T17:00:30;10.70;99.90
24800;DHT22;12897;50.812;4.430;2023-02-15T17:03:19;10.80;99.90
24800;DHT22;12897;50.812;4.430;2023-02-15T17:05:42;11.00;99.90
24800;DHT22;12897;50.812;4.430;2023-02-15T17:11:14;10.70;99.90
24800;DHT22;12897;50.812;4.430;2023-02-15T17:16:48;10.90;99.90
24800;DHT22;12897;50.812;4.430;2023-02-15T17:19:32;10.90;99.90
24800;DHT22;12897;50.812;4.430;2023-02-15T17:22:02;10.70;99.90
24800;DHT22;12897;50.812;4.430;2023-02-15T17:24:43;11.00;99.90
24800;DHT22;12897;50.812;4.430;2023-02-15T17:27:28;10.90;99.90
24800;DHT22;12897;50.812;4.430;2023-02-15T17:29:43;10.60;99.90
24800;DHT22;12897;50.812;4.430;2023-02-15T17:32:21;10.30;99.90
24800;DHT22;12897;50.812;4.430;2023-02-15T17:40:00;10.20;99.90
24800;DHT22;12897;50.812;4.430;2023-02-15T17:42:28;10.60;99.90
24800;DHT22;12897;50.812;4.430;2023-02-15T17:44:56;10.70;99.90
24800;DHT22;12897;50.812;4.430;2023-02-15T17:47:24;10.50;99.90
24800;DHT22;12897;50.812;4.430;2023-02-15T17:49:54;10.30;99.90
24800;DHT22;12897;50.812;4.430;2023-02-15T17:52:29;10.20;99.90
24800;DHT22;12897;50.812;4.430;2023-02-15T17:54:50;10.20;99.90
24800;DHT22;12897;50.812;4.430;2023-02-15T17:57:36;10.10;99.90
24800;DHT22;12897;50.812;4.430;2023-02-15T18:00:05;10.00;99.90
24800;DHT22;12897;50.812;4.430;2023-02-15T18:02:51;9.90;99.90
24800;DHT22;12897;50.812;4.430;2023-02-15T18:05:37;9.90;99.90
24800;DHT22;12897;50.812;4.430;2023-02-15T18:08:26;9.80;99.90
24800;DHT22;12897;50.812;4.430;2023-02-15T18:11:12;9.80;99.90
24800;DHT22;12897;50.812;4.430;2023-02-15T18:13:58;9.80;99.90
24800;DHT22;12897;50.812;4.430;2023-02-15T18:16:29;9.80;99.90
24800;DHT22;12897;50.812;4.430;2023-02-15T18:18:58;9.90;99.90
24800;DHT22;12897;50.812;4.430;2023-02-15T18:21:26;10.00;99.90
24800;DHT22;12897;50.812;4.430;2023-02-15T18:23:53;10.30;99.90
24800;DHT22;12897;50.812;4.430;2023-02-15T18:26:23;10.40;99.90
24800;DHT22;12897;50.812;4.430;2023-02-15T18:28:51;10.20;99.90
24800;DHT22;12897;50.812;4.430;2023-02-15T18:31:19;9.90;99.90
24800;DHT22;12897;50.812;4.430;2023-02-15T18:33:49;9.90;99.90
24800;DHT22;12897;50.812;4.430;2023-02-15T18:38:57;9.80;99.90
24800;DHT22;12897;50.812;4.430;2023-02-15T18:41:25;9.80;99.90
24800;DHT22;12897;50.812;4.430;2023-02-15T18:43:53;9.80;99.90
24800;DHT22;12897;50.812;4.430;2023-02-15T18:46:21;9.70;99.90
24800;DHT22;12897;50.812;4.430;2023-02-15T18:48:49;9.60;99.90
24800;DHT22;12897;50.812;4.430;2023-02-15T18:51:18;9.70;99.90
24800;DHT22;12897;50.812;4.430;2023-02-15T18:53:46;9.70;99.90
24800;DHT22;12897;50.812;4.430;2023-02-15T18:56:16;9.80;99.90
24800;DHT22;12897;50.812;4.430;2023-02-15T18:58:45;9.70;99.90
24800;DHT22;12897;50.812;4.430;2023-02-15T19:01:18;9.60;99.90
24800;DHT22;12897;50.812;4.430;2023-02-15T19:03:48;9.70;99.90
24800;DHT22;12897;50.812;4.430;2023-02-15T19:06:18;9.70;99.90
24800;DHT22;12897;50.812;4.430;2023-02-15T19:08:48;9.80;99.90
24800;DHT22;12897;50.812;4.430;2023-02-15T19:11:19;9.60;99.90
24800;DHT22;12897;50.812;4.430;2023-02-15T19:13:50;9.60;99.90
24800;DHT22;12897;50.812;4.430;2023-02-15T19:16:30;9.60;99.90
24800;DHT22;12897;50.812;4.430;2023-02-15T19:18:58;9.60;99.90
24800;DHT22;12897;50.812;4.430;2023-02-15T19:21:30;9.50;99.90
24800;DHT22;12897;50.812;4.430;2023-02-15T19:24:06;9.40;99.90